Airfield :
LOGIN :

Register | Disclaimer

   EN    FR    IT 

 










Legend :    VFR   Marginal VFR   IFR   Intensive IFR   Very Intensive IFR
Visi :
Ceiling :
>= 8 km
>= 3000ft
5 to 8 km
1000 to 3000 ft
1500m to 5 km
500 to 1000 ft
800 to 1500m
200 to 500 ft
< 800m
< 200 ft
Symbols :   Thunderstorms  Fog  Heavy snow  Heavy precipitations  Wind > 20 kt
SIGMETs :     Misc.  Thunderstorms  Icing  Turbulence  Mountain Waves  Volcanic Ashes






- Airport Elevation : 1363 ft


ETIC - Grafenwohr Army Air Field

CURRENT METAR :
  • 031856Z AUTO 28005KT 9999 CLR 19/09 A3007 RMK AO2 SLP174 T01910087 $

EXPIRED METARs :
  • 031756Z AUTO 31005KT 9999 CLR 21/09 A3006 RMK AO2 SLP171 T02060089 10225 20202 50002 $
  • 031656Z AUTO 32003KT 9999 SCT070 21/08 A3006 RMK AO2 SLP171 T02110080 $

TAF TAF ETIC
Valid from the 03 at 18:00 until the 05 at 00:00 UTC


031800Z 0318/0424 28009KT 9999 SCT060 QNH3010INS
BECMG 0409/0410 25012G18KT 9999 SCT045 QNH3011INS
BECMG 0418/0419 25009KT 9999 BKN040 QNH3009INS TX23/0412Z TN11/0403Z



MET'MAP, your aeronautical weather chart ! - Copyright ORBIFLY December 2007 - Disclaimer

ORBIFLY MET'MAP TEAM :

Programming & Development : Alexandra Zaïnal
Concept & original design : Baudouin d'Aumeries
Assistance for programming : Marc-Olivier Méhu
Technical & hardware support : Manuel Goepfert

Contact : metmap@orbifly.com




SOURCES & CREDITS :

   NOAA